Time;durP1;ratioP1;P1;durP2;ratioP2;P2;SDS_P1;SDS_P2;PMS_P1;PMS_P2;Temp;Humidity;BMP_temperature;BMP_pressure;BME280_temperature;BME280_humidity;BME280_pressure;Samples;Min_cycle;Max_cycle;Signal;HPM_P1;HPM_P2
2021/04/27 00:00:07;;;;;;;2.05;1.85;;;20.10;27.40;;;;;;8382704;28;20029;-58
2021/04/27 00:04:08;;;;;;;2.42;1.95;;;20.00;27.40;;;;;;8390662;28;20044;-58
2021/04/27 00:08:08;;;;;;;2.10;1.67;;;20.10;27.40;;;;;;8390238;28;20112;-58
2021/04/27 00:12:11;;;;;;;2.80;1.77;;;20.00;27.40;;;;;;8393552;28;20570;-58
2021/04/27 00:16:11;;;;;;;3.00;2.17;;;20.00;27.40;;;;;;8390647;28;20115;-58
2021/04/27 00:20:13;;;;;;;2.00;1.80;;;20.00;27.40;;;;;;8390659;28;20094;-58
2021/04/27 00:24:13;;;;;;;;;;;20.00;27.40;;;;;;8389312;28;20053;-58
2021/04/27 00:28:14;;;;;;;2.57;2.00;;;20.00;27.40;;;;;;8398388;28;19908;-58
2021/04/27 00:32:14;;;;;;;2.30;2.07;;;20.00;27.40;;;;;;8396091;28;20060;-58
2021/04/27 00:36:15;;;;;;;4.33;2.10;;;20.00;27.40;;;;;;8394336;28;20363;-58
2021/04/27 00:40:17;;;;;;;3.73;2.60;;;20.00;27.40;;;;;;8396224;28;20037;-58
2021/04/27 00:44:18;;;;;;;2.00;1.83;;;20.00;27.80;;;;;;8396238;28;20044;-58
2021/04/27 00:48:18;;;;;;;2.77;2.03;;;20.00;27.40;;;;;;8399267;28;20090;-58
2021/04/27 00:52:20;;;;;;;3.80;2.87;;;20.00;27.40;;;;;;8395992;28;20040;-59
2021/04/27 00:56:22;;;;;;;3.17;2.10;;;19.90;27.40;;;;;;8395907;28;20400;-58
2021/04/27 01:00:26;;;;;;;2.25;1.90;;;19.90;27.40;;;;;;8393923;28;20047;-58
2021/04/27 01:04:27;;;;;;;2.05;1.73;;;19.90;27.40;;;;;;8400349;28;20396;-58
2021/04/27 01:08:59;;;;;;;2.97;2.00;;;19.90;27.40;;;;;;8395608;28;20048;-58
2021/04/27 01:13:09;;;;;;;2.50;1.95;;;19.80;27.40;;;;;;8324061;28;20437;-58
2021/04/27 01:17:13;;;;;;;2.58;2.05;;;19.80;27.40;;;;;;8395249;28;20048;-58
2021/04/27 01:21:15;;;;;;;2.88;2.20;;;19.80;27.40;;;;;;8393563;28;20044;-57
2021/04/27 01:25:32;;;;;;;2.15;1.73;;;19.80;27.40;;;;;;8399420;28;20028;-58
2021/04/27 01:29:34;;;;;;;3.47;2.13;;;19.80;27.40;;;;;;8394552;28;20056;-58
2021/04/27 01:33:35;;;;;;;2.28;1.92;;;19.80;27.40;;;;;;8393248;28;20043;-58
2021/04/27 01:37:36;;;;;;;2.13;1.85;;;19.80;27.40;;;;;;8394359;28;20486;-58
2021/04/27 01:41:38;;;;;;;2.60;2.20;;;19.80;27.40;;;;;;8394228;28;20041;-58
2021/04/27 01:45:39;;;;;;;2.78;1.90;;;19.80;27.40;;;;;;8372283;28;20082;-58
2021/04/27 01:49:41;;;;;;;;;;;19.80;27.40;;;;;;8394709;28;20052;-58
2021/04/27 01:53:44;;;;;;;3.15;2.30;;;19.80;27.40;;;;;;8394420;28;20289;-58
2021/04/27 01:57:44;;;;;;;3.25;2.40;;;19.70;27.40;;;;;;8392620;28;20032;-58
2021/04/27 02:01:46;;;;;;;2.00;1.80;;;19.70;27.40;;;;;;8398491;28;20035;-58
2021/04/27 02:05:46;;;;;;;4.07;1.95;;;19.70;27.40;;;;;;8393808;28;20097;-58
2021/04/27 02:09:47;;;;;;;3.50;1.93;;;19.70;27.40;;;;;;8391732;28;20481;-58
2021/04/27 02:13:47;;;;;;;1.97;1.77;;;19.70;27.40;;;;;;8393350;28;20549;-58
2021/04/27 02:18:01;;;;;;;2.83;2.17;;;19.70;27.50;;;;;;8393787;28;20037;-58
2021/04/27 02:22:04;;;;;;;2.13;1.70;;;19.60;27.50;;;;;;8396160;28;20044;-58
2021/04/27 02:26:05;;;;;;;3.67;2.05;;;19.60;27.40;;;;;;8392947;28;20033;-58
2021/04/27 02:30:07;;;;;;;3.77;2.10;;;19.60;27.50;;;;;;8390971;28;20048;-58
2021/04/27 02:34:09;;;;;;;2.70;2.30;;;19.60;27.40;;;;;;8392652;28;20028;-58
2021/04/27 02:38:10;;;;;;;;;;;19.60;27.40;;;;;;8379003;28;20119;-58
2021/04/27 02:42:11;;;;;;;2.58;1.98;;;19.60;27.40;;;;;;8357975;28;19912;-58
2021/04/27 02:46:11;;;;;;;3.47;1.93;;;19.60;27.40;;;;;;8370557;28;20047;-58
2021/04/27 02:50:13;;;;;;;2.63;2.10;;;19.60;27.40;;;;;;8391780;28;20041;-58
2021/04/27 02:54:14;;;;;;;3.42;2.20;;;19.60;27.40;;;;;;8390669;28;20048;-58
2021/04/27 02:58:16;;;;;;;3.33;2.00;;;19.60;27.50;;;;;;8396523;28;20090;-57
2021/04/27 03:02:17;;;;;;;2.30;2.10;;;19.60;27.40;;;;;;8392131;28;20500;-57
2021/04/27 03:06:18;;;;;;;2.53;2.00;;;19.50;27.40;;;;;;8390136;28;20094;-57
2021/04/27 03:10:18;;;;;;;2.27;2.03;;;19.50;27.40;;;;;;8391488;28;20068;-58
2021/04/27 03:14:19;;;;;;;2.75;2.00;;;19.50;27.40;;;;;;8396105;28;20040;-57
2021/04/27 03:18:20;;;;;;;3.47;2.03;;;19.50;27.50;;;;;;8336741;28;20048;-57
2021/04/27 03:22:20;;;;;;;2.17;1.87;;;19.50;27.50;;;;;;8377966;28;20056;-57
2021/04/27 03:26:22;;;;;;;2.87;2.07;;;19.50;27.50;;;;;;8391888;28;20037;-57
2021/04/27 03:30:22;;;;;;;3.67;1.90;;;19.50;27.50;;;;;;8394061;28;20546;-58
2021/04/27 03:34:23;;;;;;;3.00;2.10;;;19.50;27.50;;;;;;8391331;28;20028;-56
2021/04/27 03:38:23;;;;;;;3.03;1.93;;;19.40;27.40;;;;;;8391204;28;20032;-57
2021/04/27 03:42:24;;;;;;;2.07;1.87;;;19.40;27.40;;;;;;8389632;28;20139;-58
2021/04/27 03:46:24;;;;;;;2.80;2.20;;;19.40;27.40;;;;;;8390878;28;20123;-57
2021/04/27 03:50:25;;;;;;;2.87;2.00;;;19.40;27.40;;;;;;8395144;28;20046;-58
2021/04/27 03:54:26;;;;;;;2.50;1.80;;;19.40;27.40;;;;;;8389416;28;20036;-58
2021/04/27 03:58:27;;;;;;;1.95;1.75;;;19.40;27.50;;;;;;8391120;28;20029;-58
2021/04/27 04:02:27;;;;;;;2.97;2.07;;;19.40;27.40;;;;;;8392611;28;20136;-58
2021/04/27 04:06:28;;;;;;;3.03;2.10;;;19.40;27.40;;;;;;8400629;28;20043;-58
2021/04/27 04:10:29;;;;;;;2.00;1.80;;;19.40;27.50;;;;;;8397740;28;20072;-58
2021/04/27 04:14:29;;;;;;;3.43;2.00;;;19.40;27.50;;;;;;8397366;28;20040;-58
2021/04/27 04:18:30;;;;;;;2.30;2.10;;;19.40;27.40;;;;;;8395072;28;20040;-59
2021/04/27 04:22:30;;;;;;;2.53;1.80;;;19.40;27.50;;;;;;8398293;28;20032;-57
2021/04/27 04:26:31;;;;;;;2.40;2.10;;;19.40;27.50;;;;;;8368299;28;20044;-58
2021/04/27 04:30:32;;;;;;;2.63;2.00;;;19.40;27.40;;;;;;8385451;28;20094;-58
2021/04/27 04:34:32;;;;;;;2.67;1.90;;;19.40;27.50;;;;;;8396815;28;20032;-58
2021/04/27 04:38:33;;;;;;;2.80;2.00;;;19.40;27.50;;;;;;8396653;28;20478;-58
2021/04/27 04:42:34;;;;;;;2.88;2.10;;;19.40;27.50;;;;;;8399425;28;20541;-57
2021/04/27 04:46:35;;;;;;;3.17;2.37;;;19.40;27.50;;;;;;8396343;28;20037;-58
2021/04/27 04:50:35;;;;;;;3.67;1.88;;;19.40;27.50;;;;;;8396336;28;20041;-57
2021/04/27 04:54:37;;;;;;;2.67;2.13;;;19.40;27.50;;;;;;8394814;28;20032;-57
2021/04/27 04:58:37;;;;;;;2.53;2.00;;;19.30;27.50;;;;;;8400427;28;20512;-57
2021/04/27 05:02:39;;;;;;;2.97;2.27;;;19.40;27.50;;;;;;8395957;28;20135;-58
2021/04/27 05:06:42;;;;;;;;;;;19.40;27.50;;;;;;8394331;28;20076;-58
2021/04/27 05:10:42;;;;;;;3.78;2.45;;;19.30;27.50;;;;;;8395423;28;19917;-57
2021/04/27 05:14:44;;;;;;;2.50;2.00;;;19.30;27.50;;;;;;8395366;28;20040;-56
2021/04/27 05:18:44;;;;;;;2.28;2.05;;;19.30;27.50;;;;;;8398290;28;20389;-58
2021/04/27 05:22:45;;;;;;;4.20;2.10;;;19.30;27.50;;;;;;8395238;28;20040;-59
2021/04/27 05:26:46;;;;;;;2.33;2.10;;;19.30;27.50;;;;;;8395231;28;20037;-58
2021/04/27 05:30:47;;;;;;;4.90;2.28;;;19.30;27.50;;;;;;8392998;28;20291;-57
2021/04/27 05:34:48;;;;;;;3.03;2.30;;;19.30;27.60;;;;;;8399309;28;20090;-58
2021/04/27 05:38:48;;;;;;;3.00;2.57;;;19.30;27.50;;;;;;8394678;28;20040;-58
2021/04/27 05:42:49;;;;;;;3.33;2.37;;;19.30;27.50;;;;;;8393066;28;20142;-59
2021/04/27 05:46:49;;;;;;;4.00;2.27;;;19.30;27.50;;;;;;8394674;28;20116;-57
2021/04/27 05:50:50;;;;;;;3.07;1.90;;;19.30;27.50;;;;;;8372113;28;20056;-58
2021/04/27 05:54:51;;;;;;;2.37;2.10;;;19.30;27.50;;;;;;8394452;28;20041;-58
2021/04/27 05:58:51;;;;;;;3.10;2.40;;;19.30;27.50;;;;;;8394171;28;20118;-59
2021/04/27 06:02:52;;;;;;;2.87;1.80;;;19.30;27.50;;;;;;8394165;28;20463;-58
2021/04/27 06:06:52;;;;;;;4.60;2.70;;;19.30;27.40;;;;;;8392094;28;20033;-58
2021/04/27 06:10:53;;;;;;;2.57;2.00;;;19.40;27.80;;;;;;8398040;28;20044;-58
2021/04/27 06:14:54;;;;;;;1.87;1.70;;;19.40;27.40;;;;;;8392560;28;20478;-52
2021/04/27 06:18:54;;;;;;;2.77;2.13;;;19.40;27.30;;;;;;8383656;28;20049;-58
2021/04/27 06:22:55;;;;;;;2.85;2.10;;;19.50;27.30;;;;;;8376867;28;20028;-58
2021/04/27 06:26:56;;;;;;;2.90;2.07;;;19.50;27.20;;;;;;8395126;28;20032;-57
2021/04/27 06:30:56;;;;;;;4.73;2.03;;;19.50;27.10;;;;;;8392612;28;20390;-58
2021/04/27 06:34:57;;;;;;;3.50;2.30;;;19.60;27.10;;;;;;8372127;28;20064;-58
2021/04/27 06:38:58;;;;;;;3.10;2.13;;;19.60;27.10;;;;;;8368514;28;20370;-58
2021/04/27 06:42:59;;;;;;;4.03;2.35;;;19.60;27.00;;;;;;8389860;28;20029;-58
2021/04/27 06:46:59;;;;;;;3.53;2.43;;;19.70;26.90;;;;;;8363859;28;20033;-58
2021/04/27 06:51:00;;;;;;;3.20;2.30;;;19.90;26.80;;;;;;8382066;28;20044;-58
2021/04/27 06:55:02;;;;;;;2.47;1.92;;;19.90;26.60;;;;;;8391925;28;20044;-58
2021/04/27 06:59:02;;;;;;;3.40;2.10;;;20.00;26.60;;;;;;8391910;28;20017;-57
2021/04/27 07:03:04;;;;;;;2.27;2.07;;;20.10;26.50;;;;;;8394902;28;20143;-58
2021/04/27 07:07:04;;;;;;;3.65;1.70;;;20.20;26.50;;;;;;8391721;28;20032;-57
2021/04/27 07:11:06;;;;;;;4.03;1.97;;;20.20;26.50;;;;;;8391682;28;20397;-60
2021/04/27 07:15:07;;;;;;;2.17;1.67;;;20.10;26.40;;;;;;8389098;28;20029;-57
2021/04/27 07:19:08;;;;;;;3.25;2.30;;;20.10;26.50;;;;;;8396303;28;20041;-57
2021/04/27 07:23:09;;;;;;;3.28;1.83;;;20.10;26.50;;;;;;8391341;28;20098;-58
2021/04/27 07:27:10;;;;;;;3.40;2.22;;;20.00;26.50;;;;;;8389629;28;20048;-58
2021/04/27 07:31:10;;;;;;;2.80;2.10;;;20.00;26.50;;;;;;8390453;28;20523;-58
2021/04/27 07:35:11;;;;;;;2.23;1.90;;;19.90;26.60;;;;;;8390814;28;20044;-58
2021/04/27 07:39:14;;;;;;;2.55;1.70;;;20.00;26.70;;;;;;8393119;28;20040;-57
2021/04/27 07:43:15;;;;;;;2.53;1.85;;;19.90;26.60;;;;;;8391151;28;20032;-58
2021/04/27 07:47:16;;;;;;;2.53;2.03;;;19.90;26.50;;;;;;8390956;28;20539;-57
2021/04/27 07:51:17;;;;;;;5.17;2.30;;;19.90;26.60;;;;;;8389270;28;20045;-56
2021/04/27 07:55:17;;;;;;;3.17;1.98;;;19.90;26.70;;;;;;8395613;28;20036;-57
2021/04/27 07:59:18;;;;;;;2.10;1.80;;;19.90;26.80;;;;;;8390809;28;20036;-57
2021/04/27 08:03:19;;;;;;;2.10;1.90;;;19.80;26.80;;;;;;8385728;28;20086;-58
2021/04/27 08:07:20;;;;;;;2.40;1.98;;;19.80;26.90;;;;;;8369565;28;20071;-57
2021/04/27 08:11:21;;;;;;;2.73;1.90;;;19.80;26.90;;;;;;8391558;28;20044;-57
2021/04/27 08:15:25;;;;;;;2.65;1.88;;;19.80;27.00;;;;;;8359990;28;20041;-57
2021/04/27 08:19:27;;;;;;;1.67;1.55;;;19.80;27.10;;;;;;8382135;28;20043;-57
2021/04/27 08:23:27;;;;;;;2.67;1.88;;;19.80;27.10;;;;;;8390424;28;20040;-57
2021/04/27 08:27:28;;;;;;;3.63;1.53;;;19.80;27.10;;;;;;8384463;28;20119;-57
2021/04/27 08:31:29;;;;;;;2.53;1.63;;;19.80;27.20;;;;;;8361907;28;20120;-59
2021/04/27 08:35:29;;;;;;;3.13;1.50;;;19.80;27.20;;;;;;8384983;28;20039;-57
2021/04/27 08:39:30;;;;;;;1.97;1.80;;;19.80;27.20;;;;;;8388752;28;20086;-57
2021/04/27 08:43:31;;;;;;;2.17;1.97;;;19.80;27.20;;;;;;8389836;28;20040;-57
2021/04/27 08:47:32;;;;;;;2.27;1.70;;;19.70;27.20;;;;;;8395317;28;20086;-59
2021/04/27 08:51:33;;;;;;;2.13;1.60;;;19.80;27.20;;;;;;8394259;28;20040;-58
2021/04/27 08:55:34;;;;;;;2.00;1.70;;;19.80;27.20;;;;;;8396129;28;20060;-57
2021/04/27 08:59:35;;;;;;;;;;;19.80;27.20;;;;;;8384357;28;20121;-57
2021/04/27 09:03:50;;;;;;;1.90;1.70;;;19.80;27.30;;;;;;8360924;28;19924;-57
2021/04/27 09:07:52;;;;;;;2.88;1.83;;;19.80;27.30;;;;;;8367194;28;20044;-57
2021/04/27 09:11:53;;;;;;;2.65;1.90;;;19.80;27.30;;;;;;8363351;28;20044;-57
2021/04/27 09:15:54;;;;;;;2.70;1.83;;;19.80;27.20;;;;;;8378781;28;20040;-57
2021/04/27 09:19:56;;;;;;;3.40;2.07;;;19.80;27.30;;;;;;8395788;28;20043;-57
2021/04/27 09:23:57;;;;;;;3.50;1.90;;;19.90;27.30;;;;;;8398112;28;20118;-56
2021/04/27 09:27:57;;;;;;;2.03;1.73;;;19.90;27.30;;;;;;8395135;28;20037;-56
2021/04/27 09:31:58;;;;;;;2.40;1.87;;;19.90;27.30;;;;;;8373293;27;20059;-57
2021/04/27 09:35:59;;;;;;;2.03;1.70;;;19.90;27.30;;;;;;8372725;28;20120;-57
2021/04/27 09:39:59;;;;;;;1.97;1.77;;;20.00;27.30;;;;;;8394637;28;20055;-57
2021/04/27 09:44:00;;;;;;;1.80;1.43;;;19.90;27.30;;;;;;8399082;28;20402;-58
2021/04/27 09:48:01;;;;;;;2.13;1.70;;;20.00;27.30;;;;;;8392960;28;20127;-58
2021/04/27 09:52:07;;;;;;;2.20;1.67;;;20.00;27.30;;;;;;8394348;28;20045;-59
2021/04/27 09:56:09;;;;;;;2.35;1.70;;;20.00;27.30;;;;;;8394446;28;20382;-57
2021/04/27 10:00:25;;;;;;;3.50;2.00;;;20.10;27.30;;;;;;8395996;28;20485;-57
2021/04/27 10:04:27;;;;;;;1.85;1.65;;;20.10;27.30;;;;;;8393455;28;20037;-58
2021/04/27 10:08:27;;;;;;;3.10;1.90;;;20.10;27.30;;;;;;8393820;28;20037;-56
2021/04/27 10:12:28;;;;;;;3.30;1.70;;;20.10;27.20;;;;;;8392208;28;20049;-57
2021/04/27 10:16:29;;;;;;;3.15;1.90;;;20.10;27.30;;;;;;8393791;28;20036;-57
2021/04/27 10:20:30;;;;;;;1.60;1.50;;;20.10;27.30;;;;;;8397845;28;20033;-59
2021/04/27 10:24:32;;;;;;;3.42;2.22;;;20.20;27.30;;;;;;8392319;28;20530;-58
2021/04/27 10:28:55;;;;;;;2.05;1.85;;;20.20;27.30;;;;;;8393059;28;20036;-58
2021/04/27 10:33:02;;;;;;;2.33;1.80;;;20.20;27.30;;;;;;8390286;28;20139;-57
2021/04/27 10:37:06;;;;;;;2.95;2.40;;;20.30;27.30;;;;;;8392917;27;20020;-57
2021/04/27 10:41:11;;;;;;;2.10;1.80;;;20.20;27.30;;;;;;8397325;28;20040;-58
2021/04/27 10:45:12;;;;;;;2.58;1.75;;;20.30;27.30;;;;;;8391057;28;20033;-57
2021/04/27 10:49:30;;;;;;;2.10;1.77;;;20.30;27.30;;;;;;8392395;28;20045;-57
2021/04/27 10:53:34;;;;;;;3.45;1.75;;;20.30;27.30;;;;;;8392294;28;20020;-58
2021/04/27 10:57:45;;;;;;;3.13;1.75;;;20.30;27.30;;;;;;8395060;28;20037;-58
2021/04/27 11:01:47;;;;;;;3.63;2.00;;;20.30;27.20;;;;;;8395176;28;20086;-58
2021/04/27 11:06:06;;;;;;;2.42;1.90;;;20.30;27.20;;;;;;8391539;28;20095;-58
2021/04/27 11:10:10;;;;;;;4.38;1.60;;;20.40;27.30;;;;;;8390135;28;20476;-58
2021/04/27 11:14:14;;;;;;;2.03;1.63;;;20.40;27.30;;;;;;8372899;28;20486;-58
2021/04/27 11:18:19;;;;;;;2.50;1.70;;;20.40;27.30;;;;;;8389394;28;20052;-58
2021/04/27 11:22:23;;;;;;;2.33;2.00;;;20.40;27.30;;;;;;8360835;28;20037;-58
2021/04/27 11:26:33;;;;;;;2.10;1.90;;;20.50;27.40;;;;;;8381111;28;20127;-58
2021/04/27 11:30:35;;;;;;;1.95;1.63;;;20.40;27.30;;;;;;8375534;28;20076;-58
2021/04/27 11:34:57;;;;;;;3.30;1.95;;;20.50;27.70;;;;;;8362757;28;20060;-57
2021/04/27 11:38:58;;;;;;;2.03;1.65;;;20.50;27.40;;;;;;8394039;28;20433;-57
2021/04/27 11:43:13;;;;;;;2.73;1.90;;;20.50;27.40;;;;;;8382458;28;20029;-59
2021/04/27 11:47:17;;;;;;;2.58;1.83;;;20.50;27.40;;;;;;8336548;28;20052;-59
2021/04/27 11:51:20;;;;;;;2.60;2.05;;;20.50;27.40;;;;;;8340212;28;20082;-59
2021/04/27 11:55:23;;;;;;;2.95;2.10;;;20.50;27.40;;;;;;8387787;28;20047;-59
2021/04/27 11:59:23;;;;;;;2.28;1.77;;;20.60;27.40;;;;;;8362174;28;20056;-59
2021/04/27 12:03:28;;;;;;;2.53;1.87;;;20.60;27.40;;;;;;8357030;28;20129;-59
2021/04/27 12:07:29;;;;;;;2.28;1.80;;;20.60;27.40;;;;;;8375813;28;20455;-57
2021/04/27 12:11:32;;;;;;;2.33;1.90;;;20.60;27.40;;;;;;8382983;28;20044;-58
2021/04/27 12:15:33;;;;;;;2.53;1.95;;;20.70;27.50;;;;;;8360202;28;20069;-58
2021/04/27 12:19:33;;;;;;;2.00;1.80;;;20.60;27.40;;;;;;8389704;28;20048;-58
2021/04/27 12:23:34;;;;;;;2.20;1.67;;;20.70;27.50;;;;;;8393127;28;20043;-57
2021/04/27 12:27:34;;;;;;;3.27;2.00;;;20.70;27.50;;;;;;8395590;28;20489;-57
2021/04/27 12:31:35;;;;;;;3.20;2.17;;;20.70;27.50;;;;;;8395870;28;20090;-58
2021/04/27 12:35:38;;;;;;;1.80;1.70;;;20.70;27.40;;;;;;8401325;28;20037;-58
2021/04/27 12:39:38;;;;;;;3.60;2.20;;;20.70;27.40;;;;;;8369438;28;20037;-58
2021/04/27 12:43:39;;;;;;;3.20;1.83;;;20.80;27.50;;;;;;8379625;28;20432;-58
2021/04/27 12:47:40;;;;;;;2.30;1.83;;;20.80;27.50;;;;;;8396249;28;20504;-57
2021/04/27 12:51:41;;;;;;;2.47;1.70;;;20.80;27.50;;;;;;8398893;28;20470;-59
2021/04/27 12:55:54;;;;;;;2.95;1.95;;;20.80;27.50;;;;;;8396053;28;20120;-57
2021/04/27 12:59:58;;;;;;;2.42;1.95;;;20.80;27.50;;;;;;8394193;28;20025;-53
2021/04/27 13:03:59;;;;;;;3.38;2.15;;;20.80;27.50;;;;;;8396119;28;20033;-58
2021/04/27 13:08:05;;;;;;;5.05;1.90;;;20.90;27.50;;;;;;8395742;28;20039;-57
2021/04/27 13:12:10;;;;;;;4.25;2.50;;;20.80;27.50;;;;;;8398288;28;20052;-58
2021/04/27 13:16:13;;;;;;;2.10;1.88;;;20.90;27.50;;;;;;8395762;28;20033;-57
2021/04/27 13:20:22;;;;;;;3.20;2.10;;;20.90;27.50;;;;;;8395536;28;20049;-59
2021/04/27 13:24:23;;;;;;;2.65;1.83;;;20.90;27.50;;;;;;8393534;28;20501;-59
2021/04/27 13:28:24;;;;;;;2.85;2.38;;;20.90;27.40;;;;;;8399829;28;20129;-58
2021/04/27 13:32:24;;;;;;;2.50;2.10;;;20.90;27.40;;;;;;8363456;28;20040;-59
2021/04/27 13:36:25;;;;;;;3.20;2.30;;;20.90;27.40;;;;;;8380716;28;20094;-58
2021/04/27 13:40:28;;;;;;;2.58;2.03;;;20.90;27.30;;;;;;8394751;28;20032;-57
2021/04/27 13:44:28;;;;;;;3.08;2.67;;;20.90;27.40;;;;;;8394650;28;22867;-57
2021/04/27 13:48:30;;;;;;;3.17;2.13;;;21.00;27.40;;;;;;8397277;28;20127;-57
2021/04/27 13:52:30;;;;;;;2.47;1.85;;;21.00;27.40;;;;;;8394736;28;20450;-59
2021/04/27 13:56:31;;;;;;;3.17;2.20;;;21.00;27.40;;;;;;8372798;28;20091;-58
2021/04/27 14:00:32;;;;;;;3.37;2.50;;;21.00;27.40;;;;;;8389524;28;20420;-58
2021/04/27 14:04:32;;;;;;;4.65;2.38;;;21.00;27.40;;;;;;8398832;28;20025;-58
2021/04/27 14:08:33;;;;;;;3.00;1.97;;;21.00;27.40;;;;;;8393181;28;20089;-58
2021/04/27 14:12:35;;;;;;;3.57;2.23;;;21.00;27.40;;;;;;8371788;28;20120;-58
2021/04/27 14:16:35;;;;;;;2.42;2.03;;;21.00;27.40;;;;;;8371082;28;20488;-58
2021/04/27 14:20:37;;;;;;;2.30;2.10;;;21.10;27.40;;;;;;8394443;28;20037;-57
2021/04/27 14:24:37;;;;;;;3.65;2.55;;;21.10;27.40;;;;;;8363065;28;20029;-57
2021/04/27 14:28:38;;;;;;;4.20;2.70;;;21.10;27.30;;;;;;8384002;28;20091;-57
2021/04/27 14:32:40;;;;;;;3.80;2.50;;;21.10;27.70;;;;;;8393666;28;20055;-57
2021/04/27 14:36:41;;;;;;;3.05;2.55;;;21.10;27.40;;;;;;8391284;28;20455;-57
2021/04/27 14:40:41;;;;;;;3.60;2.40;;;21.10;27.40;;;;;;8397473;28;20084;-57
2021/04/27 14:44:42;;;;;;;3.33;2.47;;;21.10;27.30;;;;;;8392614;28;20496;-57
2021/04/27 14:48:43;;;;;;;3.72;2.35;;;21.10;27.40;;;;;;8372143;28;20063;-57
2021/04/27 14:52:44;;;;;;;3.83;2.90;;;21.10;27.20;;;;;;8367857;28;20397;-57
2021/04/27 14:56:44;;;;;;;5.03;2.93;;;21.10;27.20;;;;;;8396987;28;20043;-58
2021/04/27 15:00:45;;;;;;;4.43;3.10;;;21.10;27.30;;;;;;8390318;28;20025;-58
2021/04/27 15:04:45;;;;;;;3.20;2.87;;;21.10;27.10;;;;;;8391907;28;20044;-59
2021/04/27 15:08:46;;;;;;;4.23;2.60;;;21.20;27.20;;;;;;8392008;28;20040;-59
2021/04/27 15:12:48;;;;;;;3.40;2.60;;;21.20;27.20;;;;;;8389679;28;20040;-58
2021/04/27 15:16:48;;;;;;;4.20;2.90;;;21.20;27.30;;;;;;8396303;28;20477;-58
2021/04/27 15:20:50;;;;;;;4.43;3.07;;;21.20;27.00;;;;;;8391703;28;20082;-58
2021/04/27 15:24:50;;;;;;;4.38;3.20;;;21.20;27.10;;;;;;8389620;28;20047;-58
2021/04/27 15:28:51;;;;;;;3.53;2.90;;;21.20;27.20;;;;;;8391686;28;20036;-58
2021/04/27 15:32:53;;;;;;;4.65;3.15;;;21.20;27.30;;;;;;8395770;28;20056;-59
2021/04/27 15:36:57;;;;;;;4.75;3.45;;;21.20;27.20;;;;;;8389444;28;20123;-58
2021/04/27 15:40:58;;;;;;;4.20;3.10;;;21.20;27.20;;;;;;8389841;28;20513;-58
2021/04/27 15:44:58;;;;;;;4.33;3.40;;;21.20;27.20;;;;;;8389190;28;20051;-58
2021/04/27 15:48:59;;;;;;;5.27;3.40;;;21.20;27.30;;;;;;8392397;28;20039;-57
2021/04/27 15:53:01;;;;;;;3.60;2.93;;;21.20;27.10;;;;;;8394314;28;20100;-57
2021/04/27 15:57:01;;;;;;;4.82;3.10;;;21.20;27.20;;;;;;8388281;28;20393;-57
2021/04/27 16:01:02;;;;;;;5.43;3.00;;;21.20;27.20;;;;;;8390983;28;20047;-57
2021/04/27 16:05:04;;;;;;;4.07;3.15;;;21.20;27.10;;;;;;8390780;28;20040;-58
2021/04/27 16:09:05;;;;;;;4.68;3.58;;;21.20;27.10;;;;;;8393410;28;20493;-57
2021/04/27 16:13:06;;;;;;;4.70;3.17;;;21.20;27.00;;;;;;8390677;28;20047;-58
2021/04/27 16:17:08;;;;;;;4.27;3.00;;;21.20;27.10;;;;;;8390770;28;20037;-58
2021/04/27 16:21:09;;;;;;;5.13;3.40;;;21.20;27.10;;;;;;8388824;28;20047;-58
2021/04/27 16:25:11;;;;;;;5.03;3.28;;;21.20;27.10;;;;;;8364389;28;20092;-58
2021/04/27 16:29:12;;;;;;;4.30;3.50;;;21.20;27.10;;;;;;8388909;28;20045;-58
2021/04/27 16:33:13;;;;;;;6.28;3.78;;;21.20;26.90;;;;;;8367562;28;20048;-57
2021/04/27 16:37:13;;;;;;;4.07;3.15;;;21.20;27.00;;;;;;8368625;28;20094;-56
2021/04/27 16:41:14;;;;;;;5.03;3.37;;;21.20;27.00;;;;;;8372400;28;20393;-57
2021/04/27 16:45:15;;;;;;;4.87;3.47;;;21.20;27.00;;;;;;8392816;28;20115;-55
2021/04/27 16:49:15;;;;;;;3.83;3.03;;;21.20;27.10;;;;;;8390120;28;20036;-55
2021/04/27 16:53:16;;;;;;;5.47;3.07;;;21.20;27.10;;;;;;8390234;28;20032;-56
2021/04/27 16:57:16;;;;;;;4.10;3.40;;;21.20;27.10;;;;;;8387512;28;20032;-54
2021/04/27 17:01:18;;;;;;;5.43;3.23;;;21.20;27.10;;;;;;8394518;28;20392;-55
2021/04/27 17:05:19;;;;;;;3.47;2.88;;;21.20;27.00;;;;;;8389669;28;20070;-55
2021/04/27 17:09:20;;;;;;;4.57;3.33;;;21.20;27.10;;;;;;8390038;28;20037;-55
2021/04/27 17:13:20;;;;;;;4.90;3.13;;;21.20;27.10;;;;;;8391265;28;20406;-55
2021/04/27 17:17:21;;;;;;;5.33;3.13;;;21.20;27.00;;;;;;8364869;28;20037;-55
2021/04/27 17:21:21;;;;;;;4.70;3.20;;;21.20;27.10;;;;;;8395979;28;20068;-55
2021/04/27 17:25:22;;;;;;;5.27;3.63;;;21.20;27.00;;;;;;8394792;28;20094;-55
2021/04/27 17:29:24;;;;;;;4.78;2.92;;;21.20;27.00;;;;;;8394867;28;20032;-53
2021/04/27 17:33:25;;;;;;;5.50;3.15;;;21.20;27.10;;;;;;8391303;28;20044;-53
2021/04/27 17:37:26;;;;;;;4.63;3.00;;;21.20;27.00;;;;;;8399420;28;20436;-55
2021/04/27 17:41:26;;;;;;;3.50;2.73;;;21.20;27.10;;;;;;8394893;28;20053;-55
2021/04/27 17:45:27;;;;;;;4.40;2.73;;;21.20;27.10;;;;;;8393096;28;20040;-56
2021/04/27 17:49:28;;;;;;;2.90;2.60;;;21.20;27.20;;;;;;8380366;28;20489;-56
2021/04/27 17:53:29;;;;;;;3.20;2.80;;;21.20;27.30;;;;;;8399052;28;20090;-56
2021/04/27 17:57:29;;;;;;;4.47;2.93;;;21.10;27.20;;;;;;8392781;28;20048;-55
2021/04/27 18:01:30;;;;;;;3.13;2.37;;;21.10;27.30;;;;;;8393735;28;20143;-56
2021/04/27 18:05:31;;;;;;;4.27;3.20;;;21.20;27.20;;;;;;8380953;28;20056;-58
2021/04/27 18:09:31;;;;;;;3.70;2.75;;;21.10;27.20;;;;;;8371334;28;20348;-58
2021/04/27 18:13:32;;;;;;;3.10;2.33;;;21.10;27.30;;;;;;8398090;28;20385;-58
2021/04/27 18:17:36;;;;;;;4.00;2.90;;;21.10;27.30;;;;;;8393896;28;20053;-58
2021/04/27 18:21:37;;;;;;;3.92;2.90;;;21.10;27.20;;;;;;8365984;28;20028;-57
2021/04/27 18:25:40;;;;;;;4.57;2.90;;;21.10;27.30;;;;;;8393104;28;20119;-57
2021/04/27 18:29:42;;;;;;;3.45;2.67;;;21.10;27.30;;;;;;8397460;28;20098;-58
2021/04/27 18:33:43;;;;;;;4.85;2.60;;;21.10;27.40;;;;;;8391331;28;20616;-57
2021/04/27 18:37:43;;;;;;;4.13;2.77;;;21.10;27.40;;;;;;8393014;28;20040;-57
2021/04/27 18:41:44;;;;;;;2.83;2.63;;;21.10;27.40;;;;;;8384222;28;20125;-58
2021/04/27 18:45:44;;;;;;;5.07;2.80;;;21.10;27.50;;;;;;8362228;28;20029;-58
2021/04/27 18:49:45;;;;;;;3.37;2.80;;;21.00;27.40;;;;;;8393696;28;20044;-58
2021/04/27 18:53:46;;;;;;;3.70;2.58;;;21.10;27.50;;;;;;8391619;28;20303;-58
2021/04/27 18:57:46;;;;;;;4.47;3.07;;;21.10;27.50;;;;;;8390833;28;20040;-58
2021/04/27 19:01:50;;;;;;;3.30;2.70;;;21.10;27.60;;;;;;8392236;28;20479;-58
2021/04/27 19:05:51;;;;;;;3.78;3.30;;;21.00;27.50;;;;;;8396221;28;20058;-58
2021/04/27 19:09:51;;;;;;;4.27;2.53;;;21.00;27.60;;;;;;8390133;28;20080;-58
2021/04/27 19:13:52;;;;;;;4.57;2.50;;;21.00;27.60;;;;;;8391708;28;20028;-57
2021/04/27 19:17:53;;;;;;;3.47;2.60;;;21.00;27.60;;;;;;8391869;28;20040;-56
2021/04/27 19:21:54;;;;;;;4.47;2.40;;;21.00;27.60;;;;;;8394231;28;20059;-58
2021/04/27 19:25:54;;;;;;;3.63;3.00;;;21.00;27.60;;;;;;8391216;28;20267;-58
2021/04/27 19:29:55;;;;;;;3.30;2.70;;;21.00;27.70;;;;;;8389672;28;20405;-54
2021/04/27 19:33:55;;;;;;;3.63;3.03;;;21.00;27.60;;;;;;8391057;28;20035;-58
2021/04/27 19:37:56;;;;;;;5.20;2.93;;;21.00;27.70;;;;;;8391894;28;20035;-57
2021/04/27 19:41:57;;;;;;;4.32;3.00;;;21.00;27.70;;;;;;8394134;28;20047;-57
2021/04/27 19:45:58;;;;;;;3.00;2.58;;;21.00;27.70;;;;;;8391464;28;20063;-57
2021/04/27 19:49:58;;;;;;;4.00;3.33;;;21.00;27.70;;;;;;8391350;28;20090;-58
2021/04/27 19:53:59;;;;;;;3.13;2.50;;;21.00;27.70;;;;;;8389333;28;20508;-59
2021/04/27 19:58:00;;;;;;;4.57;3.20;;;21.00;27.70;;;;;;8395796;28;20024;-58
2021/04/27 20:02:00;;;;;;;2.83;2.50;;;20.90;27.70;;;;;;8389918;28;20029;-58
2021/04/27 20:06:01;;;;;;;4.23;2.73;;;20.90;27.70;;;;;;8389646;28;20040;-58
2021/04/27 20:10:04;;;;;;;3.50;2.57;;;20.90;27.70;;;;;;8391070;28;20045;-58
2021/04/27 20:14:05;;;;;;;3.25;2.85;;;20.90;27.70;;;;;;8395067;28;20610;-58
2021/04/27 20:18:07;;;;;;;4.33;3.03;;;20.90;27.70;;;;;;8389254;28;20049;-58
2021/04/27 20:22:09;;;;;;;4.97;3.15;;;20.90;27.70;;;;;;8390685;28;20089;-58
2021/04/27 20:26:09;;;;;;;;;;;20.90;27.80;;;;;;8390905;28;20123;-58
2021/04/27 20:30:12;;;;;;;3.73;2.73;;;20.90;27.80;;;;;;8388977;28;19920;-58
2021/04/27 20:34:13;;;;;;;4.00;2.88;;;20.90;27.80;;;;;;8394844;28;20051;-58
2021/04/27 20:38:14;;;;;;;3.43;2.80;;;20.90;27.80;;;;;;8390618;28;20024;-58
2021/04/27 20:42:15;;;;;;;4.07;2.75;;;20.90;27.80;;;;;;8387461;28;20042;-58
2021/04/27 20:46:15;;;;;;;3.70;2.70;;;20.90;27.80;;;;;;8395426;28;20024;-58
2021/04/27 20:50:18;;;;;;;3.50;2.50;;;20.90;27.80;;;;;;8400980;28;20056;-58
2021/04/27 20:54:18;;;;;;;3.95;2.70;;;20.90;27.80;;;;;;8394721;28;20041;-58
2021/04/27 20:58:21;;;;;;;3.77;2.43;;;20.90;27.80;;;;;;8396257;28;20062;-59